Harrisonville, Illinois
Current Conditions -  °F | °C
As of 7:53 AM on Monday 26 Jan 2015 (Local Time) from KCPS Reporting Station
Overcast Overcast  
Wind Chill: 20°   Ceiling: 2400
Heat Index: 29°   Visibility: 10mi
Dew Point: 23°   Wind: 10mph
Humidity: 78%   Direction: 280°W
Pressure: 30.05"   Gusts: NA
Location:  38.2838°N, 90.3044°W
Report Text: KCPS 261353Z 28009KT 10SM OVC024 M02/M05 A3005 RMK AO2 SLP179 T10171050
Loading
Personal Weather Stations






























Interactive Weather Map New forecast layout! Learn more

10-Day Weather Forecast

Advertisements
Track Severe Weather on mobile